createdAt,value
2019-04-30T00:01:17.403Z,9.50
2019-04-30T00:03:46.100Z,9.50
2019-04-30T00:06:15.679Z,9.60
2019-04-30T00:08:45.241Z,9.50
2019-04-30T00:11:15.895Z,9.50
2019-04-30T00:13:45.994Z,9.40
2019-04-30T00:16:15.482Z,9.30
2019-04-30T00:18:55.615Z,9.60
2019-04-30T00:21:18.665Z,9.60
2019-04-30T00:23:46.868Z,9.50
2019-04-30T00:26:17.279Z,9.60
2019-04-30T00:28:47.866Z,9.60
2019-04-30T00:31:23.493Z,9.50
2019-04-30T00:33:48.251Z,9.50
2019-04-30T00:36:17.665Z,9.40
2019-04-30T00:38:46.977Z,9.30
2019-04-30T00:41:16.394Z,9.30
2019-04-30T00:43:49.278Z,9.40
2019-04-30T00:46:24.765Z,9.40
2019-04-30T00:48:47.917Z,9.50
2019-04-30T00:51:21.237Z,9.30
2019-04-30T00:53:51.202Z,9.40
2019-04-30T00:56:19.951Z,9.70
2019-04-30T00:58:50.413Z,9.60
2019-04-30T01:01:25.277Z,9.50
2019-04-30T01:04:05.567Z,9.50
2019-04-30T01:06:35.070Z,9.40
2019-04-30T01:09:08.429Z,9.60
2019-04-30T01:11:39.778Z,9.50
2019-04-30T01:14:06.926Z,9.30
2019-04-30T01:16:36.300Z,9.50
2019-04-30T01:19:11.387Z,9.50
2019-04-30T01:21:40.196Z,9.40
2019-04-30T01:24:08.944Z,9.50
2019-04-30T01:26:39.364Z,9.50
2019-04-30T01:29:10.285Z,9.60
2019-04-30T01:31:40.828Z,9.60
2019-04-30T01:34:14.072Z,9.30
2019-04-30T01:36:43.510Z,9.20
2019-04-30T01:39:12.522Z,9.40
2019-04-30T01:41:41.857Z,9.40
2019-04-30T01:44:12.123Z,9.40
2019-04-30T01:46:43.309Z,9.60
2019-04-30T01:49:12.717Z,9.60
2019-04-30T01:51:42.045Z,9.50
2019-04-30T01:54:13.646Z,9.50
2019-04-30T01:56:44.128Z,9.50
2019-04-30T01:59:15.083Z,9.40
2019-04-30T02:01:46.058Z,9.30
2019-04-30T02:04:15.446Z,9.50
2019-04-30T02:06:44.779Z,9.30
2019-04-30T02:09:14.086Z,9.20
2019-04-30T02:11:43.495Z,9.40
2019-04-30T02:14:12.803Z,9.30
2019-04-30T02:16:42.212Z,9.30
2019-04-30T02:19:11.520Z,9.20
2019-04-30T02:21:40.836Z,9.30
2019-04-30T02:24:11.153Z,9.30
2019-04-30T02:26:40.661Z,9.50
2019-04-30T02:29:09.998Z,9.40
2019-04-30T02:31:40.746Z,9.40
2019-04-30T02:34:22.162Z,9.40
2019-04-30T02:36:56.367Z,9.60
2019-04-30T02:39:25.773Z,9.80
2019-04-30T02:41:56.225Z,9.60
2019-04-30T02:44:26.505Z,9.50
2019-04-30T02:47:00.130Z,9.40
2019-04-30T02:49:30.519Z,9.40
2019-04-30T02:52:02.976Z,9.40
2019-04-30T02:54:34.919Z,9.40
2019-04-30T02:57:05.872Z,9.40
2019-04-30T02:59:36.853Z,9.40
2019-04-30T03:02:06.157Z,9.40
2019-04-30T03:04:35.492Z,9.40
2019-04-30T03:07:04.871Z,9.50
2019-04-30T03:09:34.273Z,9.40
2019-04-30T03:12:03.739Z,9.40
2019-04-30T03:14:33.070Z,9.60
2019-04-30T03:17:04.032Z,9.60
2019-04-30T03:19:47.048Z,9.60
2019-04-30T03:22:20.322Z,9.40
2019-04-30T03:24:50.112Z,9.30
2019-04-30T03:27:21.018Z,9.20
2019-04-30T03:29:50.712Z,9.30
2019-04-30T03:32:22.412Z,9.20
2019-04-30T03:34:51.950Z,9.20
2019-04-30T03:37:21.670Z,9.20
2019-04-30T03:39:51.021Z,9.20
2019-04-30T03:42:20.327Z,9.20
2019-04-30T03:44:49.916Z,9.30
2019-04-30T03:47:20.153Z,9.50
2019-04-30T03:49:50.088Z,9.70
2019-04-30T03:52:19.889Z,9.60
2019-04-30T03:54:49.609Z,9.50
2019-04-30T03:57:20.518Z,9.40
2019-04-30T03:59:50.220Z,9.40
2019-04-30T04:02:21.143Z,9.50
2019-04-30T04:04:52.522Z,9.60
2019-04-30T04:07:39.924Z,9.60
2019-04-30T04:10:19.298Z,9.60
2019-04-30T04:12:49.866Z,9.70
2019-04-30T04:15:19.998Z,9.60
2019-04-30T04:17:50.417Z,9.60
2019-04-30T04:20:20.442Z,9.70
2019-04-30T04:22:50.048Z,9.70
2019-04-30T04:25:20.473Z,9.70
2019-04-30T04:27:50.979Z,9.70
2019-04-30T04:30:20.715Z,9.60
2019-04-30T04:32:50.284Z,9.60
2019-04-30T04:35:20.109Z,9.90
2019-04-30T04:37:49.888Z,9.90
2019-04-30T04:40:20.986Z,9.80
2019-04-30T04:42:50.517Z,9.70
2019-04-30T04:45:20.078Z,9.60
2019-04-30T04:47:50.334Z,9.50
2019-04-30T04:50:20.395Z,9.70
2019-04-30T04:52:49.909Z,9.70
2019-04-30T04:55:21.738Z,9.60
2019-04-30T04:57:50.323Z,9.70
2019-04-30T05:00:19.751Z,9.60
2019-04-30T05:02:59.867Z,9.60
2019-04-30T05:05:29.866Z,9.60
2019-04-30T05:07:59.405Z,9.60
2019-04-30T05:10:29.216Z,9.80
2019-04-30T05:12:59.255Z,9.90
2019-04-30T05:15:29.515Z,9.70
2019-04-30T05:17:59.352Z,9.60
2019-04-30T05:20:29.281Z,9.70
2019-04-30T05:22:58.680Z,9.70
2019-04-30T05:25:29.594Z,9.70
2019-04-30T05:27:59.011Z,9.70
2019-04-30T05:30:29.529Z,9.80
2019-04-30T05:32:58.998Z,9.80
2019-04-30T05:35:39.887Z,9.90
2019-04-30T05:38:09.427Z,10.10
2019-04-30T05:40:39.850Z,10.10
2019-04-30T05:43:11.406Z,10.00
2019-04-30T05:45:41.048Z,9.80
2019-04-30T05:48:10.370Z,9.80
2019-04-30T05:50:39.707Z,9.90
2019-04-30T05:53:09.146Z,9.80
2019-04-30T05:55:39.535Z,9.80
2019-04-30T05:58:09.481Z,9.90
2019-04-30T06:00:39.981Z,9.90
2019-04-30T06:03:09.757Z,10.10
2019-04-30T06:05:39.469Z,10.10
2019-04-30T06:08:09.337Z,10.10
2019-04-30T06:10:46.626Z,10.10
2019-04-30T06:13:31.854Z,10.20
2019-04-30T06:16:02.037Z,10.10
2019-04-30T06:18:31.429Z,10.00
2019-04-30T06:21:00.931Z,9.90
2019-04-30T06:23:30.265Z,10.10
2019-04-30T06:26:09.001Z,10.20
2019-04-30T06:28:32.230Z,10.10
2019-04-30T06:31:01.716Z,10.00
2019-04-30T06:33:31.174Z,10.10
2019-04-30T06:36:01.554Z,10.10
2019-04-30T06:38:30.872Z,10.10
2019-04-30T06:41:00.210Z,10.20
2019-04-30T06:43:30.180Z,10.20
2019-04-30T06:45:59.564Z,10.20
2019-04-30T06:48:30.856Z,10.30
2019-04-30T06:51:00.254Z,10.20
2019-04-30T06:53:29.590Z,10.30
2019-04-30T06:55:59.129Z,10.40
2019-04-30T06:58:29.163Z,10.40
2019-04-30T07:00:59.557Z,10.50
2019-04-30T07:03:29.208Z,10.40
2019-04-30T07:05:58.718Z,10.60
2019-04-30T07:08:39.675Z,10.60
2019-04-30T07:11:21.579Z,10.60
2019-04-30T07:13:52.315Z,10.40
2019-04-30T07:16:21.784Z,10.50
2019-04-30T07:18:51.200Z,10.50
2019-04-30T07:21:20.528Z,10.50
2019-04-30T07:23:49.936Z,10.50
2019-04-30T07:26:24.224Z,10.40
2019-04-30T07:28:54.841Z,10.40
2019-04-30T07:31:21.406Z,10.50
2019-04-30T07:33:53.717Z,10.40
2019-04-30T07:36:21.798Z,10.40
2019-04-30T07:38:56.174Z,10.30
2019-04-30T07:41:22.193Z,10.30
2019-04-30T07:43:51.535Z,10.40
2019-04-30T07:46:20.867Z,10.30
2019-04-30T07:48:50.423Z,10.30
2019-04-30T07:51:20.979Z,10.20
2019-04-30T07:53:50.852Z,10.30
2019-04-30T07:56:27.984Z,10.30
2019-04-30T07:58:51.229Z,10.20
2019-04-30T08:01:20.631Z,10.20
2019-04-30T08:04:00.507Z,10.20
2019-04-30T08:06:31.227Z,10.00
2019-04-30T08:09:01.445Z,10.20
2019-04-30T08:11:34.666Z,10.20
2019-04-30T08:14:02.566Z,10.10
2019-04-30T08:16:32.298Z,10.20
2019-04-30T08:19:01.717Z,10.20
2019-04-30T08:21:31.039Z,10.10
2019-04-30T08:24:01.132Z,10.30
2019-04-30T08:26:30.574Z,10.20
2019-04-30T08:28:59.984Z,10.40
2019-04-30T08:31:29.378Z,10.30
2019-04-30T08:33:59.213Z,10.20
2019-04-30T08:36:29.798Z,10.30
2019-04-30T08:38:59.817Z,10.20
2019-04-30T08:41:29.474Z,10.20
2019-04-30T08:43:59.774Z,10.20
2019-04-30T08:46:29.409Z,10.30
2019-04-30T08:48:58.963Z,10.30
2019-04-30T08:51:30.945Z,10.40
2019-04-30T08:53:59.976Z,10.50
2019-04-30T08:56:29.742Z,10.40
2019-04-30T08:58:59.485Z,10.40
2019-04-30T09:01:29.531Z,10.80
2019-04-30T09:03:59.771Z,11.00
2019-04-30T09:06:30.199Z,10.80
2019-04-30T09:09:00.197Z,10.60
2019-04-30T09:11:42.894Z,10.80
2019-04-30T09:14:00.645Z,10.80
2019-04-30T09:16:30.060Z,11.00
2019-04-30T09:18:59.637Z,10.90
2019-04-30T09:21:30.028Z,10.80
2019-04-30T09:23:59.652Z,10.70
2019-04-30T09:26:29.185Z,10.80
2019-04-30T09:28:59.371Z,10.80
2019-04-30T09:31:29.602Z,10.90
2019-04-30T09:34:01.013Z,11.10
2019-04-30T09:36:30.256Z,11.10
2019-04-30T09:39:01.512Z,11.10
2019-04-30T09:41:30.800Z,11.00
2019-04-30T09:44:00.241Z,10.90
2019-04-30T09:46:30.043Z,10.70
2019-04-30T09:48:59.917Z,10.80
2019-04-30T09:51:30.670Z,11.00
2019-04-30T09:54:03.445Z,11.00
2019-04-30T09:56:31.624Z,11.20
2019-04-30T09:59:00.967Z,11.10
2019-04-30T10:01:32.743Z,11.20
2019-04-30T10:04:03.761Z,11.20
2019-04-30T10:06:39.858Z,11.10
2019-04-30T10:09:06.678Z,11.10
2019-04-30T10:11:37.997Z,11.30
2019-04-30T10:14:07.416Z,11.40
2019-04-30T10:16:39.604Z,11.40
2019-04-30T10:19:10.275Z,11.40
2019-04-30T10:21:39.810Z,11.40
2019-04-30T10:24:15.242Z,11.20
2019-04-30T10:26:40.275Z,11.50
2019-04-30T10:29:09.687Z,11.60
2019-04-30T10:31:39.127Z,11.70
2019-04-30T10:34:09.666Z,11.60
2019-04-30T10:36:41.506Z,11.60
2019-04-30T10:39:10.839Z,11.70
2019-04-30T10:41:40.167Z,11.70
2019-04-30T10:44:09.732Z,11.70
2019-04-30T10:46:39.235Z,11.80
2019-04-30T10:49:09.162Z,11.90
2019-04-30T10:51:38.890Z,11.90
2019-04-30T10:54:08.893Z,11.80
2019-04-30T10:56:38.528Z,12.00
2019-04-30T10:59:07.841Z,12.00
2019-04-30T11:01:39.048Z,12.20
2019-04-30T11:04:08.737Z,12.10
2019-04-30T11:06:38.147Z,12.30
2019-04-30T11:09:08.793Z,12.40
2019-04-30T11:11:39.778Z,12.30
2019-04-30T11:14:09.279Z,12.60
2019-04-30T11:16:38.707Z,13.20
2019-04-30T11:19:09.371Z,14.20
2019-04-30T11:21:39.214Z,15.50
2019-04-30T11:24:09.361Z,16.10
2019-04-30T11:26:40.160Z,16.10
2019-04-30T11:29:10.492Z,15.80
2019-04-30T11:31:47.939Z,14.80
2019-04-30T11:34:17.563Z,14.20
2019-04-30T11:36:46.897Z,14.00
2019-04-30T11:39:18.624Z,14.00
2019-04-30T11:41:48.216Z,14.50
2019-04-30T11:44:28.448Z,14.40
2019-04-30T11:47:02.643Z,14.40
2019-04-30T11:49:32.007Z,14.10
2019-04-30T11:52:01.348Z,13.70
2019-04-30T11:54:30.770Z,13.60
2019-04-30T11:57:00.114Z,13.70
2019-04-30T11:59:29.825Z,13.60
2019-04-30T12:02:00.935Z,13.70
2019-04-30T12:04:30.306Z,13.80
2019-04-30T12:07:01.290Z,14.10
2019-04-30T12:09:40.989Z,14.10
2019-04-30T12:12:10.392Z,14.30
2019-04-30T12:14:39.850Z,14.70
2019-04-30T12:17:09.193Z,14.80
2019-04-30T12:19:38.894Z,14.80
2019-04-30T12:22:08.435Z,14.90
2019-04-30T12:24:38.774Z,14.80
2019-04-30T12:27:08.443Z,14.80
2019-04-30T12:29:39.647Z,14.70
2019-04-30T12:32:08.837Z,14.40
2019-04-30T12:34:38.161Z,14.30
2019-04-30T12:37:10.567Z,14.20
2019-04-30T12:39:39.483Z,14.10
2019-04-30T12:42:08.879Z,14.00
2019-04-30T12:44:40.028Z,14.10
2019-04-30T12:47:09.724Z,14.50
2019-04-30T12:49:52.487Z,14.70
2019-04-30T12:52:41.426Z,14.60
2019-04-30T12:55:15.940Z,14.60
2019-04-30T12:57:58.254Z,14.90
2019-04-30T13:00:19.527Z,14.80
2019-04-30T13:02:49.042Z,14.70
2019-04-30T13:05:18.914Z,14.60
2019-04-30T13:07:50.031Z,14.80
2019-04-30T13:10:20.554Z,15.40
2019-04-30T13:12:50.934Z,15.80
2019-04-30T13:15:20.579Z,16.20
2019-04-30T13:17:50.190Z,15.90
2019-04-30T13:20:23.799Z,15.60
2019-04-30T13:22:51.130Z,15.80
2019-04-30T13:25:30.363Z,16.00
2019-04-30T13:27:53.285Z,16.10
2019-04-30T13:30:42.610Z,16.60
2019-04-30T13:33:13.594Z,16.60
2019-04-30T13:35:42.923Z,16.80
2019-04-30T13:38:29.247Z,17.00
2019-04-30T13:41:05.956Z,17.50
2019-04-30T13:43:39.936Z,17.50
2019-04-30T13:46:08.598Z,17.20
2019-04-30T13:48:38.191Z,17.40
2019-04-30T13:51:07.520Z,17.80
2019-04-30T13:53:36.982Z,18.00
2019-04-30T13:56:06.373Z,17.90
2019-04-30T13:58:35.727Z,17.50
2019-04-30T14:01:06.263Z,17.70
2019-04-30T14:03:49.348Z,17.70
2019-04-30T14:06:20.316Z,17.50
2019-04-30T14:08:51.293Z,17.50
2019-04-30T14:11:20.900Z,17.60
2019-04-30T14:13:50.242Z,17.60
2019-04-30T14:16:20.227Z,17.50
2019-04-30T14:18:49.850Z,17.50
2019-04-30T14:21:33.165Z,17.10
2019-04-30T14:23:59.056Z,16.80
2019-04-30T14:26:29.104Z,16.90
2019-04-30T14:28:58.887Z,16.60
2019-04-30T14:31:30.742Z,16.40
2019-04-30T14:34:00.254Z,16.50
2019-04-30T14:36:29.616Z,16.80
2019-04-30T14:39:13.649Z,16.90
2019-04-30T14:41:32.474Z,17.20
2019-04-30T14:44:09.329Z,17.70
2019-04-30T14:46:57.356Z,17.50
2019-04-30T14:49:56.449Z,17.10
2019-04-30T14:52:17.037Z,16.90
2019-04-30T14:54:50.890Z,17.40
2019-04-30T14:57:21.916Z,17.60
2019-04-30T14:59:52.894Z,17.40
2019-04-30T15:02:29.725Z,17.50
2019-04-30T15:04:59.242Z,17.90
2019-04-30T15:07:29.541Z,18.40
2019-04-30T15:09:59.058Z,18.40
2019-04-30T15:12:28.385Z,18.40
2019-04-30T15:14:59.204Z,18.10
2019-04-30T15:17:28.858Z,18.00
2019-04-30T15:19:58.792Z,17.80
2019-04-30T15:22:29.038Z,17.80
2019-04-30T15:25:00.174Z,18.10
2019-04-30T15:27:29.799Z,18.70
2019-04-30T15:29:59.135Z,18.90
2019-04-30T15:32:28.700Z,18.80
2019-04-30T15:34:58.945Z,18.70
2019-04-30T15:37:28.707Z,18.40
2019-04-30T15:39:59.138Z,18.50
2019-04-30T15:42:28.744Z,18.60
2019-04-30T15:44:59.448Z,18.40
2019-04-30T15:47:28.971Z,18.30
2019-04-30T15:50:02.201Z,18.60
2019-04-30T15:52:33.030Z,18.50
2019-04-30T15:55:04.512Z,18.20
2019-04-30T15:57:34.054Z,18.10
2019-04-30T16:00:04.912Z,18.00
2019-04-30T16:02:39.844Z,17.90
2019-04-30T16:05:13.776Z,18.10
2019-04-30T16:07:44.922Z,17.80
2019-04-30T16:10:28.614Z,17.80
2019-04-30T16:13:11.975Z,17.90
2019-04-30T16:15:41.294Z,17.50
2019-04-30T16:18:10.987Z,17.70
2019-04-30T16:20:40.392Z,17.70
2019-04-30T16:23:09.744Z,17.60
2019-04-30T16:25:39.162Z,17.50
2019-04-30T16:28:10.148Z,17.30
2019-04-30T16:30:39.679Z,17.10
2019-04-30T16:33:10.684Z,16.90
2019-04-30T16:35:40.134Z,16.80
2019-04-30T16:38:15.430Z,16.70
2019-04-30T16:40:44.774Z,16.60
2019-04-30T16:43:14.128Z,16.60
2019-04-30T16:45:43.476Z,16.60
2019-04-30T16:48:15.625Z,16.50
2019-04-30T16:50:44.997Z,16.40
2019-04-30T16:53:14.316Z,16.20
2019-04-30T16:55:43.748Z,16.10
2019-04-30T16:58:13.149Z,16.20
2019-04-30T17:00:42.796Z,16.20
2019-04-30T17:03:13.757Z,16.40
2019-04-30T17:06:07.425Z,16.50
2019-04-30T17:08:44.133Z,16.70
2019-04-30T17:11:17.535Z,16.90
2019-04-30T17:13:54.273Z,16.90
2019-04-30T17:16:24.734Z,16.90
2019-04-30T17:18:54.060Z,16.90
2019-04-30T17:21:23.457Z,17.00
2019-04-30T17:23:52.808Z,17.00
2019-04-30T17:26:22.275Z,17.10
2019-04-30T17:28:51.738Z,17.10
2019-04-30T17:31:21.165Z,17.10
2019-04-30T17:33:50.499Z,17.10
2019-04-30T17:36:19.895Z,17.00
2019-04-30T17:38:49.221Z,16.90
2019-04-30T17:41:18.648Z,16.60
2019-04-30T17:43:49.585Z,16.40
2019-04-30T17:46:20.168Z,16.30
2019-04-30T17:48:49.700Z,16.20
2019-04-30T17:51:19.251Z,16.10
2019-04-30T17:54:06.319Z,16.00
2019-04-30T17:56:35.730Z,15.80
2019-04-30T17:59:05.246Z,15.60
2019-04-30T18:01:34.661Z,15.40
2019-04-30T18:04:04.052Z,15.40
2019-04-30T18:06:33.482Z,15.30
2019-04-30T18:09:10.729Z,15.20
2019-04-30T18:11:39.780Z,15.20
2019-04-30T18:14:09.097Z,15.10
2019-04-30T18:16:38.798Z,14.90
2019-04-30T18:19:09.881Z,14.70
2019-04-30T18:21:44.018Z,14.50
2019-04-30T18:24:20.764Z,14.30
2019-04-30T18:26:51.748Z,14.30
2019-04-30T18:29:21.058Z,14.30
2019-04-30T18:31:50.488Z,14.10
2019-04-30T18:34:19.810Z,14.00
2019-04-30T18:36:51.263Z,13.80
2019-04-30T18:39:20.267Z,13.80
2019-04-30T18:41:49.627Z,13.60
2019-04-30T18:44:19.563Z,13.50
2019-04-30T18:46:49.196Z,13.30
2019-04-30T18:49:18.826Z,13.30
2019-04-30T18:51:49.260Z,13.10
2019-04-30T18:54:20.911Z,13.10
2019-04-30T18:56:51.202Z,13.00
2019-04-30T18:59:20.518Z,12.90
2019-04-30T19:01:49.913Z,12.70
2019-04-30T19:04:19.253Z,12.60
2019-04-30T19:06:49.143Z,12.60
2019-04-30T19:09:35.805Z,12.60
2019-04-30T19:12:08.554Z,12.50
2019-04-30T19:14:39.620Z,12.40
2019-04-30T19:17:10.550Z,12.40
2019-04-30T19:19:47.584Z,12.30
2019-04-30T19:22:18.705Z,12.20
2019-04-30T19:24:58.149Z,12.20
2019-04-30T19:27:19.296Z,12.10
2019-04-30T19:29:49.109Z,12.10
2019-04-30T19:32:19.772Z,12.00
2019-04-30T19:34:49.224Z,12.00
2019-04-30T19:37:19.697Z,12.10
2019-04-30T19:39:51.106Z,11.90
2019-04-30T19:42:20.564Z,12.10
2019-04-30T19:44:58.844Z,11.90
2019-04-30T19:47:20.952Z,11.80
2019-04-30T19:49:50.305Z,11.70
2019-04-30T19:52:19.784Z,11.60
2019-04-30T19:54:49.155Z,11.50
2019-04-30T19:57:19.136Z,11.60
2019-04-30T19:59:49.193Z,11.50
2019-04-30T20:02:19.111Z,11.40
2019-04-30T20:04:49.790Z,11.40
2019-04-30T20:07:19.577Z,11.40
2019-04-30T20:10:00.179Z,11.20
2019-04-30T20:12:19.995Z,11.20
2019-04-30T20:14:49.662Z,11.10
2019-04-30T20:17:19.450Z,11.10
2019-04-30T20:19:49.039Z,11.00
2019-04-30T20:22:20.724Z,11.00
2019-04-30T20:24:50.285Z,10.90
2019-04-30T20:27:19.609Z,10.90
2019-04-30T20:29:51.730Z,10.80
2019-04-30T20:32:35.383Z,10.70
2019-04-30T20:34:56.610Z,10.70
2019-04-30T20:37:26.011Z,10.50
2019-04-30T20:39:58.569Z,10.60
2019-04-30T20:42:28.074Z,10.40
2019-04-30T20:44:58.907Z,10.40
2019-04-30T20:47:30.006Z,10.40
2019-04-30T20:49:59.562Z,10.50
2019-04-30T20:52:29.115Z,10.30
2019-04-30T20:54:58.404Z,10.30
2019-04-30T20:57:29.463Z,10.30
2019-04-30T20:59:59.934Z,10.40
2019-04-30T21:02:29.438Z,10.70
2019-04-30T21:04:58.806Z,10.50
2019-04-30T21:07:28.132Z,10.20
2019-04-30T21:09:58.300Z,10.10
2019-04-30T21:12:28.877Z,10.10
2019-04-30T21:14:59.633Z,9.90
2019-04-30T21:17:28.991Z,10.00
2019-04-30T21:19:58.803Z,10.00
2019-04-30T21:22:29.692Z,9.80
2019-04-30T21:25:00.584Z,9.60
2019-04-30T21:27:30.480Z,9.70
2019-04-30T21:30:00.062Z,9.70
2019-04-30T21:32:48.522Z,9.80
2019-04-30T21:35:25.873Z,9.70
2019-04-30T21:37:58.989Z,9.90
2019-04-30T21:40:29.640Z,9.90
2019-04-30T21:42:59.302Z,9.70
2019-04-30T21:45:29.143Z,9.60
2019-04-30T21:48:01.515Z,9.50
2019-04-30T21:50:30.959Z,9.60
2019-04-30T21:53:00.504Z,9.60
2019-04-30T21:55:29.859Z,9.60
2019-04-30T21:57:59.508Z,9.70
2019-04-30T22:00:32.374Z,9.60
2019-04-30T22:03:04.427Z,9.40
2019-04-30T22:05:33.851Z,9.50
2019-04-30T22:08:04.518Z,9.60
2019-04-30T22:10:36.933Z,10.10
2019-04-30T22:13:08.765Z,9.90
2019-04-30T22:15:37.588Z,9.80
2019-04-30T22:18:06.919Z,9.90
2019-04-30T22:20:36.264Z,10.00
2019-04-30T22:23:05.663Z,10.00
2019-04-30T22:25:35.024Z,10.10
2019-04-30T22:28:04.341Z,10.00
2019-04-30T22:30:33.685Z,9.90
2019-04-30T22:33:02.998Z,9.80
2019-04-30T22:35:33.981Z,9.50
2019-04-30T22:38:13.887Z,9.30
2019-04-30T22:40:43.218Z,9.40
2019-04-30T22:43:12.541Z,9.40
2019-04-30T22:45:45.975Z,9.30
2019-04-30T22:48:15.290Z,9.30
2019-04-30T22:50:45.006Z,9.30
2019-04-30T22:53:14.325Z,9.20
2019-04-30T22:55:43.745Z,9.10
2019-04-30T22:58:13.133Z,9.00
2019-04-30T23:00:44.345Z,8.80
2019-04-30T23:03:15.442Z,8.80
2019-04-30T23:05:44.846Z,8.60
2019-04-30T23:08:14.228Z,8.50
2019-04-30T23:10:43.577Z,8.60
2019-04-30T23:13:12.888Z,8.60
2019-04-30T23:15:42.270Z,8.50
2019-04-30T23:18:11.619Z,8.50
2019-04-30T23:20:40.933Z,8.40
2019-04-30T23:23:10.342Z,8.20
2019-04-30T23:25:39.656Z,8.10
2019-04-30T23:28:09.242Z,8.10
2019-04-30T23:30:38.631Z,8.10
2019-04-30T23:33:07.966Z,8.00
2019-04-30T23:35:37.271Z,8.00
2019-04-30T23:38:06.677Z,8.00
2019-04-30T23:40:52.525Z,8.00
2019-04-30T23:43:22.188Z,8.00
2019-04-30T23:45:51.584Z,7.80
2019-04-30T23:48:20.920Z,7.70
2019-04-30T23:50:50.252Z,7.80
2019-04-30T23:53:19.582Z,7.90
2019-04-30T23:55:48.894Z,7.90
2019-04-30T23:58:18.250Z,7.80
